Time;durP1;ratioP1;P1;durP2;ratioP2;P2;SDS_P1;SDS_P2;PMS_P1;PMS_P2;Temp;Humidity;BMP_temperature;BMP_pressure;BME280_temperature;BME280_humidity;BME280_pressure;Samples;Min_cycle;Max_cycle;Signal;HPM_P1;HPM_P2
2022/11/24 00:02:05;;;;;;;23.98;9.68;;;7.50;99.90;;;;;;4988240;28;20195;-69
2022/11/24 00:04:31;;;;;;;24.92;9.98;;;7.60;99.90;;;;;;5003167;28;20050;-70
2022/11/24 00:06:56;;;;;;;23.20;9.63;;;7.50;99.90;;;;;;5004939;28;20049;-70
2022/11/24 00:09:22;;;;;;;23.48;9.40;;;7.90;99.90;;;;;;5004641;28;20127;-70
2022/11/24 00:11:48;;;;;;;20.02;9.90;;;7.50;99.90;;;;;;4986482;28;20056;-70
2022/11/24 00:14:14;;;;;;;26.42;9.52;;;7.50;99.90;;;;;;5003837;28;20095;-70
2022/11/24 00:16:39;;;;;;;23.08;9.52;;;7.50;99.90;;;;;;5005894;28;20135;-70
2022/11/24 00:19:08;;;;;;;23.63;10.15;;;7.40;99.90;;;;;;5003251;28;20049;-71
2022/11/24 00:21:34;;;;;;;24.02;9.57;;;7.40;99.90;;;;;;5007595;28;20037;-70
2022/11/24 00:24:01;;;;;;;19.30;8.93;;;7.40;99.90;;;;;;5004392;28;20057;-71
2022/11/24 00:26:29;;;;;;;26.65;9.65;;;7.40;99.90;;;;;;5005896;28;20056;-70
2022/11/24 00:28:58;;;;;;;24.25;9.48;;;7.40;99.90;;;;;;5004807;28;20049;-70
2022/11/24 00:31:26;;;;;;;25.60;9.95;;;7.30;99.90;;;;;;5005893;28;20120;-71
2022/11/24 00:33:55;;;;;;;27.20;9.57;;;7.30;99.90;;;;;;5006405;28;20088;-69
2022/11/24 00:36:23;;;;;;;21.25;8.63;;;7.30;99.90;;;;;;5006373;28;20056;-68
2022/11/24 00:38:53;;;;;;;21.70;9.40;;;7.30;99.90;;;;;;5003232;28;20073;-69
2022/11/24 00:41:19;;;;;;;29.27;9.30;;;7.30;99.90;;;;;;5005370;28;20046;-70
2022/11/24 00:43:44;;;;;;;27.77;9.00;;;7.20;99.90;;;;;;4997625;28;20037;-71
2022/11/24 00:46:10;;;;;;;25.20;9.00;;;7.20;99.90;;;;;;4988229;28;20030;-71
2022/11/24 00:48:36;;;;;;;24.38;8.93;;;7.20;99.90;;;;;;5004029;28;20676;-71
2022/11/24 00:51:05;;;;;;;26.70;8.20;;;7.20;99.90;;;;;;5005818;28;20045;-71
2022/11/24 00:53:31;;;;;;;26.75;8.75;;;7.20;99.90;;;;;;5002689;28;20121;-70
2022/11/24 00:55:57;;;;;;;21.67;8.25;;;7.20;99.90;;;;;;5005849;28;20143;-70
2022/11/24 00:58:23;;;;;;;25.00;8.63;;;7.20;99.90;;;;;;5006274;28;20050;-77
2022/11/24 01:00:50;;;;;;;28.00;8.45;;;7.20;99.90;;;;;;4989508;28;20040;-76
2022/11/24 01:03:17;;;;;;;27.25;7.43;;;7.20;99.90;;;;;;5005719;28;20041;-74
2022/11/24 01:05:43;;;;;;;27.98;7.57;;;7.20;99.90;;;;;;5005321;28;20492;-76
2022/11/24 01:08:09;;;;;;;24.83;7.63;;;7.20;99.90;;;;;;5004053;28;20084;-75
2022/11/24 01:10:35;;;;;;;27.92;7.35;;;7.20;99.90;;;;;;4987555;28;20449;-76
2022/11/24 01:13:01;;;;;;;23.98;7.45;;;7.20;99.90;;;;;;5009299;28;20088;-76
2022/11/24 01:15:29;;;;;;;30.10;7.82;;;7.20;99.90;;;;;;5009573;28;20064;-75
2022/11/24 01:17:55;;;;;;;26.85;7.40;;;7.20;99.90;;;;;;5009334;28;20462;-75
2022/11/24 01:20:21;;;;;;;22.23;6.35;;;7.20;99.90;;;;;;5010284;28;20054;-76
2022/11/24 01:22:48;;;;;;;34.97;6.65;;;7.10;99.90;;;;;;5007963;28;20037;-75
2022/11/24 01:25:15;;;;;;;19.98;6.10;;;7.10;99.90;;;;;;5009094;28;20045;-75
2022/11/24 01:27:40;;;;;;;30.80;6.63;;;7.10;99.90;;;;;;5009386;28;20053;-76
2022/11/24 01:30:07;;;;;;;27.08;6.60;;;7.10;99.90;;;;;;5008107;28;20042;-76
2022/11/24 01:32:34;;;;;;;22.88;6.13;;;7.10;99.90;;;;;;5010084;28;20042;-77
2022/11/24 01:35:01;;;;;;;31.73;5.65;;;7.10;99.90;;;;;;5008921;28;20204;-75
2022/11/24 01:37:26;;;;;;;26.90;6.68;;;7.10;99.90;;;;;;5007705;28;20151;-76
2022/11/24 01:39:52;;;;;;;25.25;6.05;;;7.10;99.90;;;;;;5004773;28;20781;-75
2022/11/24 01:42:18;;;;;;;26.02;6.50;;;7.10;99.90;;;;;;5009415;28;20049;-76
2022/11/24 01:44:44;;;;;;;24.83;5.70;;;7.10;99.90;;;;;;5008724;28;20104;-75
2022/11/24 01:47:32;;;;;;;30.45;6.50;;;7.20;99.90;;;;;;5007433;28;20041;-76
2022/11/24 01:50:01;;;;;;;22.45;6.05;;;7.20;99.90;;;;;;5006319;28;20129;-75
2022/11/24 01:52:42;;;;;;;30.75;6.10;;;7.20;99.90;;;;;;5009465;28;20053;-76
2022/11/24 01:55:13;;;;;;;27.35;6.20;;;7.20;99.90;;;;;;5006188;28;20050;-76
2022/11/24 01:58:05;;;;;;;27.55;5.38;;;7.20;99.90;;;;;;5008047;28;20376;-76
2022/11/24 02:00:33;;;;;;;31.17;6.32;;;7.20;99.90;;;;;;5005285;28;20081;-75
2022/11/24 02:02:59;;;;;;;24.92;5.82;;;7.20;99.90;;;;;;5006960;28;20052;-76
2022/11/24 02:06:06;;;;;;;30.42;5.05;;;7.20;99.90;;;;;;5008255;28;20511;-76
2022/11/24 02:08:32;;;;;;;25.77;5.18;;;7.20;99.90;;;;;;5004204;28;20045;-75
2022/11/24 02:11:01;;;;;;;22.23;5.55;;;7.20;99.90;;;;;;5007995;28;20049;-76
2022/11/24 02:13:27;;;;;;;30.63;5.57;;;7.20;99.90;;;;;;5007522;28;20049;-76
2022/11/24 02:15:53;;;;;;;23.73;5.35;;;7.20;99.90;;;;;;5007095;28;20092;-76
2022/11/24 02:18:19;;;;;;;35.22;5.95;;;7.20;99.90;;;;;;4994712;28;20128;-76
2022/11/24 02:20:44;;;;;;;29.08;5.30;;;7.20;99.90;;;;;;5008193;28;20139;-76
2022/11/24 02:23:16;;;;;;;23.17;4.93;;;7.20;99.90;;;;;;5005983;28;20034;-76
2022/11/24 02:25:41;;;;;;;;;;;7.20;99.90;;;;;;5008186;28;20553;-76
2022/11/24 02:28:11;;;;;;;28.00;5.03;;;7.20;99.90;;;;;;5008045;28;19925;-76
2022/11/24 02:30:37;;;;;;;26.60;5.07;;;7.20;99.90;;;;;;5007290;28;20076;-76
2022/11/24 02:33:03;;;;;;;28.60;5.97;;;7.20;99.90;;;;;;5007769;28;20073;-76
2022/11/24 02:35:29;;;;;;;23.42;4.78;;;7.20;99.90;;;;;;5008484;28;20494;-76
2022/11/24 02:37:55;;;;;;;27.52;4.85;;;7.20;99.90;;;;;;5000109;28;20046;-76
2022/11/24 02:40:24;;;;;;;27.65;5.30;;;7.20;99.90;;;;;;4996654;28;20133;-76
2022/11/24 02:42:58;;;;;;;23.00;4.57;;;7.20;99.90;;;;;;5003143;28;20042;-76
2022/11/24 02:45:26;;;;;;;22.05;4.60;;;7.20;99.90;;;;;;5008074;28;20042;-76
2022/11/24 02:47:51;;;;;;;26.02;5.13;;;7.20;99.90;;;;;;5008605;28;20038;-76
2022/11/24 02:50:17;;;;;;;22.52;4.75;;;7.20;99.90;;;;;;5007509;28;20092;-76
2022/11/24 02:52:43;;;;;;;20.42;5.00;;;7.20;99.90;;;;;;4996771;28;20151;-76
2022/11/24 02:55:09;;;;;;;20.45;4.45;;;7.20;99.90;;;;;;5004988;28;20065;-76
2022/11/24 02:57:34;;;;;;;21.95;4.00;;;7.10;99.90;;;;;;5005892;28;20042;-75
2022/11/24 03:00:00;;;;;;;25.77;5.38;;;7.10;99.90;;;;;;5006032;28;20789;-76
2022/11/24 03:02:26;;;;;;;18.63;3.60;;;7.10;99.90;;;;;;5006723;28;20049;-76
2022/11/24 03:04:52;;;;;;;26.15;4.13;;;7.10;99.90;;;;;;4993418;28;20073;-76
2022/11/24 03:07:18;;;;;;;21.40;4.25;;;7.10;99.90;;;;;;4985974;28;20050;-76
2022/11/24 03:09:43;;;;;;;20.27;4.53;;;7.10;99.90;;;;;;4987939;28;20053;-76
2022/11/24 03:12:09;;;;;;;21.95;4.35;;;7.10;99.90;;;;;;4987262;28;20042;-76
2022/11/24 03:14:35;;;;;;;19.85;4.22;;;7.10;99.90;;;;;;4984684;28;20096;-75
2022/11/24 03:17:01;;;;;;;27.98;4.30;;;7.10;99.90;;;;;;4987986;28;20046;-76
2022/11/24 03:19:26;;;;;;;25.50;4.25;;;7.10;99.90;;;;;;4987779;28;20129;-75
2022/11/24 03:21:52;;;;;;;28.15;5.15;;;7.10;99.90;;;;;;4986816;28;20042;-75
2022/11/24 03:24:18;;;;;;;26.58;4.90;;;7.10;99.90;;;;;;4986102;28;20046;-75
2022/11/24 03:26:44;;;;;;;28.23;4.45;;;7.10;99.90;;;;;;4986252;28;20397;-76
2022/11/24 03:29:09;;;;;;;21.17;4.35;;;7.10;99.90;;;;;;4969001;28;20050;-75
2022/11/24 03:31:35;;;;;;;22.45;4.78;;;7.10;99.90;;;;;;4987795;28;20086;-75
2022/11/24 03:34:01;;;;;;;22.73;4.57;;;7.10;99.90;;;;;;4987595;28;20533;-75
2022/11/24 03:36:27;;;;;;;23.52;4.30;;;7.10;99.90;;;;;;4984748;28;20035;-75
2022/11/24 03:38:52;;;;;;;22.35;4.40;;;7.10;99.90;;;;;;4985317;28;20048;-75
2022/11/24 03:41:18;;;;;;;31.10;4.68;;;7.30;99.90;;;;;;4985384;28;20531;-75
2022/11/24 03:43:44;;;;;;;25.90;4.63;;;7.20;99.90;;;;;;4987621;28;20551;-76
2022/11/24 03:46:11;;;;;;;24.70;4.00;;;7.20;99.90;;;;;;4985943;28;20046;-75
2022/11/24 03:48:37;;;;;;;30.23;4.55;;;7.20;99.90;;;;;;4985421;28;20038;-76
2022/11/24 03:51:03;;;;;;;22.80;4.55;;;7.20;99.90;;;;;;4986042;28;20633;-76
2022/11/24 03:53:31;;;;;;;20.17;4.13;;;7.20;99.90;;;;;;4986151;28;20030;-76
2022/11/24 03:55:57;;;;;;;28.25;5.00;;;7.20;99.90;;;;;;4985376;28;20484;-75
2022/11/24 03:58:23;;;;;;;20.15;3.65;;;7.20;99.90;;;;;;4985515;28;20050;-75
2022/11/24 04:00:50;;;;;;;25.50;3.88;;;7.20;99.90;;;;;;4983709;28;20046;-77
2022/11/24 04:03:16;;;;;;;19.55;3.85;;;7.20;99.90;;;;;;4985545;28;20035;-75
2022/11/24 04:05:42;;;;;;;23.15;3.47;;;7.20;99.90;;;;;;4992445;28;20038;-75
2022/11/24 04:08:08;;;;;;;18.75;3.92;;;7.20;99.90;;;;;;4993289;28;20420;-75
2022/11/24 04:10:36;;;;;;;27.75;3.75;;;7.20;99.90;;;;;;5005544;28;20088;-75
2022/11/24 04:13:08;;;;;;;27.60;4.55;;;7.10;99.90;;;;;;4993878;28;20757;-75
2022/11/24 04:15:36;;;;;;;26.60;4.07;;;7.20;99.90;;;;;;5001366;28;20049;-75
2022/11/24 04:18:02;;;;;;;25.77;4.00;;;7.10;99.90;;;;;;5006026;28;20124;-75
2022/11/24 04:20:28;;;;;;;23.45;4.35;;;7.10;99.90;;;;;;5006309;28;20199;-75
2022/11/24 04:22:53;;;;;;;25.63;3.40;;;7.10;99.90;;;;;;5006435;28;20075;-75
2022/11/24 04:25:19;;;;;;;19.33;3.72;;;7.10;99.90;;;;;;5006376;28;20050;-75
2022/11/24 04:27:51;;;;;;;17.88;4.03;;;7.10;99.90;;;;;;5005482;28;20049;-75
2022/11/24 04:30:17;;;;;;;20.10;3.72;;;7.10;99.90;;;;;;5003994;28;20037;-75
2022/11/24 04:32:43;;;;;;;26.88;4.47;;;7.10;99.90;;;;;;5006441;28;20111;-75
2022/11/24 04:35:09;;;;;;;23.65;3.88;;;7.10;99.90;;;;;;5005474;28;20042;-75
2022/11/24 04:37:35;;;;;;;25.55;3.53;;;7.10;99.90;;;;;;5006211;28;20049;-69
2022/11/24 04:40:01;;;;;;;21.05;3.28;;;7.10;99.90;;;;;;5004025;28;20046;-69
2022/11/24 04:42:26;;;;;;;21.50;3.50;;;7.00;99.90;;;;;;5005223;28;20041;-70
2022/11/24 04:44:52;;;;;;;24.20;3.70;;;7.10;99.90;;;;;;5002875;28;20038;-69
2022/11/24 04:47:21;;;;;;;23.38;3.72;;;7.30;99.90;;;;;;5010089;28;20050;-69
2022/11/24 04:49:47;;;;;;;15.32;3.08;;;7.00;99.90;;;;;;4995111;28;20038;-69
2022/11/24 04:52:14;;;;;;;18.80;3.03;;;7.00;99.90;;;;;;5011860;28;20081;-69
2022/11/24 04:54:39;;;;;;;25.70;3.45;;;7.00;99.90;;;;;;5012250;28;20081;-69
2022/11/24 04:57:05;;;;;;;16.92;3.20;;;7.00;99.90;;;;;;4994916;28;20139;-69
2022/11/24 04:59:31;;;;;;;21.52;3.38;;;7.00;99.90;;;;;;5010811;28;20052;-70
2022/11/24 05:01:56;;;;;;;21.40;3.40;;;7.00;99.90;;;;;;5010866;28;20085;-70
2022/11/24 05:04:22;;;;;;;20.70;4.05;;;7.00;99.90;;;;;;5012228;28;20044;-69
2022/11/24 05:06:48;;;;;;;22.10;3.38;;;7.00;99.90;;;;;;4992199;28;20038;-70
2022/11/24 05:09:15;;;;;;;21.45;3.40;;;6.90;99.90;;;;;;5008305;28;20139;-69
2022/11/24 05:11:42;;;;;;;26.98;3.90;;;6.90;99.90;;;;;;5003143;28;20309;-70
2022/11/24 05:14:08;;;;;;;21.67;3.45;;;7.00;99.90;;;;;;4994909;28;20543;-70
2022/11/24 05:16:36;;;;;;;25.55;3.40;;;6.90;99.90;;;;;;5009986;28;20054;-70
2022/11/24 05:19:02;;;;;;;17.70;3.20;;;6.90;99.90;;;;;;5011976;28;20046;-70
2022/11/24 05:21:28;;;;;;;18.02;3.83;;;6.90;99.90;;;;;;5011408;28;20045;-70
2022/11/24 05:23:53;;;;;;;20.55;3.78;;;6.90;99.90;;;;;;5010484;28;20143;-70
2022/11/24 05:26:19;;;;;;;24.75;4.72;;;6.90;99.90;;;;;;4987815;28;20042;-70
2022/11/24 05:28:45;;;;;;;23.05;3.25;;;6.90;99.90;;;;;;5005332;28;20053;-70
2022/11/24 05:31:10;;;;;;;26.08;3.80;;;6.90;99.90;;;;;;5008851;28;20034;-70
2022/11/24 05:33:37;;;;;;;23.75;3.70;;;6.80;99.90;;;;;;4999676;28;20196;-70
2022/11/24 05:36:05;;;;;;;19.33;3.95;;;6.80;99.90;;;;;;4993258;28;20054;-69
2022/11/24 05:38:32;;;;;;;21.95;3.88;;;6.80;99.90;;;;;;5009450;28;20438;-69
2022/11/24 05:41:02;;;;;;;20.25;3.60;;;6.80;99.90;;;;;;4996217;28;20710;-69
2022/11/24 05:43:28;;;;;;;22.45;3.47;;;6.80;99.90;;;;;;5010219;28;20052;-69
2022/11/24 05:45:53;;;;;;;23.55;4.43;;;6.80;99.90;;;;;;4992611;28;20383;-69
2022/11/24 05:48:19;;;;;;;17.67;3.22;;;6.90;99.90;;;;;;5008655;28;20461;-69
2022/11/24 05:50:51;;;;;;;24.35;4.82;;;6.80;99.90;;;;;;4993645;28;20045;-69
2022/11/24 05:53:17;;;;;;;24.50;3.28;;;6.70;99.90;;;;;;5006896;28;20822;-69
2022/11/24 05:55:43;;;;;;;21.13;3.40;;;6.80;99.90;;;;;;5009033;28;20041;-70
2022/11/24 05:58:09;;;;;;;25.40;4.00;;;6.80;99.90;;;;;;5002904;28;20038;-70
2022/11/24 06:00:35;;;;;;;18.35;4.07;;;6.70;99.90;;;;;;4984867;28;20120;-69
2022/11/24 06:03:01;;;;;;;16.15;2.97;;;6.80;99.90;;;;;;5002148;28;20072;-70
2022/11/24 06:05:28;;;;;;;18.08;3.72;;;6.70;99.90;;;;;;4996890;28;20065;-70
2022/11/24 06:07:54;;;;;;;18.63;3.85;;;6.70;99.90;;;;;;4998927;28;20057;-69
2022/11/24 06:10:22;;;;;;;19.27;3.50;;;6.70;99.90;;;;;;4981825;28;20050;-70
2022/11/24 06:12:48;;;;;;;23.35;3.75;;;6.70;99.90;;;;;;4991369;28;20070;-70
2022/11/24 06:15:14;;;;;;;22.35;3.63;;;6.70;99.90;;;;;;4999859;28;20089;-70
2022/11/24 06:17:40;;;;;;;22.75;3.85;;;6.70;99.90;;;;;;4994386;28;20073;-71
2022/11/24 06:20:07;;;;;;;18.88;3.35;;;6.70;99.90;;;;;;5002376;28;20041;-70
2022/11/24 06:22:33;;;;;;;21.70;3.50;;;6.70;99.90;;;;;;5000252;28;20042;-70
2022/11/24 06:24:58;;;;;;;16.73;3.70;;;6.70;99.90;;;;;;4999756;28;20488;-70
2022/11/24 06:27:25;;;;;;;30.27;4.03;;;6.60;99.90;;;;;;4998335;28;20077;-69
2022/11/24 06:29:51;;;;;;;21.50;3.45;;;6.70;99.90;;;;;;4993597;28;20042;-70
2022/11/24 06:32:16;;;;;;;20.90;3.30;;;6.60;99.90;;;;;;4972220;28;20042;-70
2022/11/24 06:34:42;;;;;;;17.55;2.65;;;6.60;99.90;;;;;;5004333;28;20049;-71
2022/11/24 06:37:08;;;;;;;21.73;3.83;;;6.60;99.90;;;;;;5003472;28;20077;-70
2022/11/24 06:39:34;;;;;;;19.85;3.47;;;6.60;99.90;;;;;;4997686;28;20089;-71
2022/11/24 06:42:00;;;;;;;18.83;2.78;;;6.60;99.90;;;;;;4997940;28;20053;-70
2022/11/24 06:44:26;;;;;;;15.70;3.33;;;6.60;99.90;;;;;;5001448;28;20083;-71
2022/11/24 06:46:52;;;;;;;21.02;2.92;;;6.60;99.90;;;;;;5007015;28;20049;-71
2022/11/24 06:49:18;;;;;;;20.63;3.40;;;6.60;99.90;;;;;;5006341;28;20050;-71
2022/11/24 06:51:43;;;;;;;18.45;3.25;;;6.50;99.90;;;;;;5006288;28;21702;-70
2022/11/24 06:54:15;;;;;;;19.80;2.83;;;6.50;99.90;;;;;;5001457;28;20042;-71
2022/11/24 06:56:41;;;;;;;20.77;3.25;;;6.70;99.90;;;;;;4989208;28;20517;-70
2022/11/24 06:59:13;;;;;;;20.60;2.70;;;6.50;99.90;;;;;;5005433;28;20046;-70
2022/11/24 07:01:39;;;;;;;16.75;3.33;;;6.60;99.90;;;;;;4987956;28;20578;-70
2022/11/24 07:04:04;;;;;;;19.65;3.35;;;6.50;99.90;;;;;;5002173;28;20081;-70
2022/11/24 07:06:30;;;;;;;14.93;2.65;;;6.50;99.90;;;;;;4991326;28;20100;-71
2022/11/24 07:08:56;;;;;;;23.38;3.28;;;6.50;99.90;;;;;;5003815;28;20049;-71
2022/11/24 07:11:23;;;;;;;20.05;3.42;;;6.50;99.90;;;;;;5001577;28;20151;-70
2022/11/24 07:13:52;;;;;;;15.70;2.97;;;6.50;99.90;;;;;;4998169;28;20388;-71
2022/11/24 07:16:21;;;;;;;26.33;3.60;;;6.70;99.90;;;;;;5004091;28;20169;-71
2022/11/24 07:18:50;;;;;;;18.08;3.67;;;6.50;99.90;;;;;;4986653;28;20136;-71
2022/11/24 07:21:16;;;;;;;22.08;3.80;;;6.50;99.90;;;;;;4988065;28;20133;-70
2022/11/24 07:23:42;;;;;;;24.65;3.60;;;6.50;99.90;;;;;;5005261;28;20041;-70
2022/11/24 07:26:09;;;;;;;17.77;4.03;;;6.50;99.90;;;;;;4998217;28;20061;-71
2022/11/24 07:28:35;;;;;;;18.42;4.13;;;6.60;99.90;;;;;;5006200;28;20042;-71
2022/11/24 07:31:17;;;;;;;14.93;3.38;;;6.60;99.90;;;;;;5005303;28;20048;-71
2022/11/24 07:33:50;;;;;;;16.75;4.10;;;6.50;99.90;;;;;;5005895;28;20718;-70
2022/11/24 07:36:17;;;;;;;23.15;3.75;;;6.60;99.90;;;;;;4990115;28;20519;-70
2022/11/24 07:38:43;;;;;;;19.90;5.18;;;6.60;99.90;;;;;;5005995;28;20048;-74
2022/11/24 07:41:10;;;;;;;15.73;3.70;;;6.60;99.90;;;;;;5003489;28;20116;-71
2022/11/24 07:43:36;;;;;;;21.73;4.15;;;6.50;99.90;;;;;;5005601;28;20042;-70
2022/11/24 07:46:04;;;;;;;19.17;3.92;;;6.60;99.90;;;;;;5004353;28;20090;-71
2022/11/24 07:48:30;;;;;;;23.23;3.80;;;6.60;99.90;;;;;;5004833;28;20503;-68
2022/11/24 07:50:59;;;;;;;23.42;4.53;;;6.60;99.90;;;;;;5001761;28;20278;-70
2022/11/24 07:53:28;;;;;;;11.55;3.55;;;6.60;99.90;;;;;;4989590;28;20052;-70
2022/11/24 07:55:59;;;;;;;21.20;4.43;;;6.60;99.90;;;;;;5004269;28;20048;-70
2022/11/24 07:58:30;;;;;;;19.77;3.88;;;6.60;99.90;;;;;;4988468;28;20049;-69
2022/11/24 08:00:56;;;;;;;18.85;4.18;;;6.60;99.90;;;;;;4988821;28;20064;-70
2022/11/24 08:03:24;;;;;;;22.15;4.15;;;6.60;99.90;;;;;;4987850;28;20038;-70
2022/11/24 08:05:57;;;;;;;20.23;4.18;;;6.70;99.90;;;;;;5005558;28;20050;-69
2022/11/24 08:08:22;;;;;;;21.52;4.95;;;7.00;99.90;;;;;;4998086;28;20529;-70
2022/11/24 08:10:48;;;;;;;18.75;3.90;;;6.60;99.90;;;;;;5006578;28;20038;-69
2022/11/24 08:13:14;;;;;;;21.90;4.63;;;7.00;99.90;;;;;;5000647;28;20033;-69
2022/11/24 08:15:40;;;;;;;23.27;4.80;;;6.60;99.90;;;;;;5006572;28;20060;-70
2022/11/24 08:18:05;;;;;;;20.05;4.28;;;6.60;99.90;;;;;;5006098;28;20088;-70
2022/11/24 08:20:31;;;;;;;19.67;4.63;;;6.70;99.90;;;;;;5005090;28;20052;-69
2022/11/24 08:22:58;;;;;;;15.98;4.22;;;7.00;99.90;;;;;;4999955;28;20087;-69
2022/11/24 08:25:30;;;;;;;22.55;4.68;;;6.70;99.90;;;;;;5004147;28;20050;-69
2022/11/24 08:27:56;;;;;;;24.80;4.88;;;6.60;99.90;;;;;;5005234;28;20061;-68
2022/11/24 08:30:22;;;;;;;18.77;4.82;;;6.90;99.90;;;;;;5006062;28;20077;-69
2022/11/24 08:32:48;;;;;;;18.02;4.78;;;6.60;99.90;;;;;;5005076;28;20057;-73
2022/11/24 08:35:13;;;;;;;18.05;4.97;;;6.70;99.90;;;;;;5008777;28;20033;-73
2022/11/24 08:37:39;;;;;;;16.08;5.03;;;6.70;99.90;;;;;;5008236;28;20054;-75
2022/11/24 08:40:06;;;;;;;30.92;5.80;;;6.70;99.90;;;;;;5006149;28;20046;-75
2022/11/24 08:42:31;;;;;;;23.17;5.70;;;6.70;99.90;;;;;;5006908;28;20530;-75
2022/11/24 08:44:57;;;;;;;20.60;5.55;;;6.80;99.90;;;;;;5000214;28;20177;-75
2022/11/24 08:47:22;;;;;;;19.77;4.82;;;6.80;99.90;;;;;;4987882;28;20124;-75
2022/11/24 08:49:48;;;;;;;25.55;5.32;;;6.90;99.90;;;;;;5004696;28;21681;-75
2022/11/24 08:52:15;;;;;;;17.35;5.55;;;6.90;99.90;;;;;;5005063;28;20673;-75
2022/11/24 08:54:43;;;;;;;22.25;5.25;;;7.00;99.90;;;;;;5005191;28;20121;-75
2022/11/24 08:57:09;;;;;;;19.30;5.20;;;7.00;99.90;;;;;;5006368;28;20046;-76
2022/11/24 08:59:35;;;;;;;17.95;5.20;;;7.00;99.90;;;;;;5005484;28;20470;-75
2022/11/24 09:02:01;;;;;;;24.92;4.45;;;7.00;99.90;;;;;;4989826;28;20050;-76
2022/11/24 09:04:27;;;;;;;15.57;4.88;;;7.00;99.90;;;;;;5005663;28;20401;-75
2022/11/24 09:06:52;;;;;;;16.77;4.25;;;7.00;99.90;;;;;;5006026;28;20045;-76
2022/11/24 09:09:18;;;;;;;16.00;4.43;;;7.00;99.90;;;;;;5004445;28;20077;-76
2022/11/24 09:11:44;;;;;;;14.32;4.25;;;7.00;99.90;;;;;;4989209;28;20072;-76
2022/11/24 09:14:09;;;;;;;21.98;4.80;;;7.00;99.90;;;;;;5006009;28;20447;-76
2022/11/24 09:16:35;;;;;;;15.63;4.45;;;7.00;99.90;;;;;;5006151;28;20132;-77
2022/11/24 09:19:03;;;;;;;18.25;4.05;;;7.10;99.90;;;;;;5005683;28;20050;-76
2022/11/24 09:21:32;;;;;;;17.42;4.65;;;7.10;99.90;;;;;;4991230;28;20396;-77
2022/11/24 09:23:58;;;;;;;14.82;4.00;;;7.10;99.90;;;;;;5002494;28;20049;-76
2022/11/24 09:26:31;;;;;;;15.63;4.15;;;7.30;99.90;;;;;;5003679;28;20045;-77
2022/11/24 09:28:59;;;;;;;17.85;4.45;;;7.20;99.90;;;;;;4987390;28;20049;-77
2022/11/24 09:31:29;;;;;;;11.52;3.90;;;7.30;99.90;;;;;;5004635;28;20046;-70
2022/11/24 09:33:55;;;;;;;15.68;4.32;;;7.30;99.90;;;;;;5008160;28;20038;-70
2022/11/24 09:36:22;;;;;;;13.80;4.25;;;7.40;99.90;;;;;;5009368;28;20042;-70
2022/11/24 09:38:47;;;;;;;14.48;3.97;;;7.60;99.90;;;;;;5004483;28;20041;-70
2022/11/24 09:41:22;;;;;;;17.33;4.40;;;7.40;99.90;;;;;;5008077;28;20046;-70
2022/11/24 09:44:28;;;;;;;16.08;4.00;;;7.50;99.90;;;;;;5009442;28;20084;-70
2022/11/24 09:47:00;;;;;;;13.88;4.03;;;7.50;99.90;;;;;;4947096;28;20430;-70
2022/11/24 09:49:33;;;;;;;13.82;3.20;;;7.60;99.90;;;;;;4997957;28;20173;-69
2022/11/24 09:52:02;;;;;;;12.65;3.22;;;7.60;99.90;;;;;;4991039;28;20128;-70
2022/11/24 09:54:29;;;;;;;9.98;2.90;;;7.70;99.90;;;;;;5006539;28;20125;-70
2022/11/24 09:56:59;;;;;;;14.38;3.40;;;7.70;99.90;;;;;;5003806;28;20046;-71
2022/11/24 09:59:26;;;;;;;19.52;3.65;;;7.80;99.90;;;;;;5002733;28;20075;-70
2022/11/24 10:01:53;;;;;;;13.43;2.53;;;7.80;99.90;;;;;;4992985;28;20046;-69
2022/11/24 10:04:28;;;;;;;13.77;3.13;;;7.80;99.90;;;;;;4998650;28;20046;-70
2022/11/24 10:07:23;;;;;;;11.80;2.65;;;7.90;99.90;;;;;;5004799;28;20053;-70
2022/11/24 10:09:54;;;;;;;9.48;2.65;;;7.90;99.90;;;;;;4992755;28;20061;-70
2022/11/24 10:12:32;;;;;;;11.98;3.10;;;8.00;99.90;;;;;;4997197;28;20585;-71
2022/11/24 10:14:58;;;;;;;8.20;2.75;;;8.00;99.90;;;;;;4998991;28;20089;-70
2022/11/24 10:17:57;;;;;;;10.98;2.60;;;8.00;99.90;;;;;;4998330;28;20716;-70
2022/11/24 10:20:31;;;;;;;10.32;2.83;;;8.10;99.90;;;;;;5003368;28;20045;-70
2022/11/24 10:23:22;;;;;;;11.63;2.70;;;8.10;99.90;;;;;;4995592;28;20132;-70
2022/11/24 10:25:55;;;;;;;13.70;2.42;;;8.10;99.90;;;;;;4993122;28;20148;-69
2022/11/24 10:28:28;;;;;;;10.10;2.33;;;8.50;99.90;;;;;;5002905;28;20513;-70
2022/11/24 10:31:12;;;;;;;11.10;2.53;;;8.20;99.90;;;;;;4996515;28;20054;-70
2022/11/24 10:33:38;;;;;;;10.90;2.38;;;8.20;99.90;;;;;;5005325;28;20060;-69
2022/11/24 10:36:13;;;;;;;9.82;3.03;;;8.30;99.90;;;;;;4997025;28;20049;-69
2022/11/24 10:38:52;;;;;;;9.90;2.50;;;8.60;99.90;;;;;;5002651;28;20052;-69
2022/11/24 10:41:51;;;;;;;8.90;2.50;;;8.40;99.90;;;;;;5005101;28;20046;-69
2022/11/24 10:44:17;;;;;;;7.95;2.33;;;8.40;99.90;;;;;;4999277;28;20081;-69
2022/11/24 10:46:42;;;;;;;8.43;2.75;;;8.40;99.90;;;;;;5005883;28;20298;-69
2022/11/24 10:49:18;;;;;;;10.93;2.72;;;8.40;99.90;;;;;;5007295;28;20112;-69
2022/11/24 10:52:05;;;;;;;9.85;2.60;;;8.50;99.90;;;;;;4983491;28;20401;-70
2022/11/24 10:54:34;;;;;;;16.95;2.83;;;8.80;99.90;;;;;;4998843;28;20041;-68
2022/11/24 10:57:00;;;;;;;9.25;2.63;;;8.60;99.90;;;;;;4999290;28;20046;-69
2022/11/24 10:59:31;;;;;;;13.07;2.53;;;8.60;99.90;;;;;;5001754;28;20400;-70
2022/11/24 11:01:57;;;;;;;8.00;2.40;;;8.60;99.90;;;;;;5000796;28;20049;-69
2022/11/24 11:04:29;;;;;;;17.88;3.53;;;8.70;99.90;;;;;;5000711;28;20510;-69
2022/11/24 11:07:16;;;;;;;9.40;2.47;;;9.00;99.90;;;;;;5000981;28;20077;-69
2022/11/24 11:09:42;;;;;;;11.05;2.72;;;8.70;99.90;;;;;;4988891;28;20045;-69
2022/11/24 11:12:10;;;;;;;10.15;2.40;;;8.70;99.90;;;;;;5002589;28;20096;-68
2022/11/24 11:14:36;;;;;;;9.68;2.42;;;8.80;99.90;;;;;;5007293;28;20046;-69
2022/11/24 11:17:22;;;;;;;13.73;2.40;;;8.80;99.90;;;;;;5006708;28;20046;-69
2022/11/24 11:19:50;;;;;;;10.13;2.17;;;8.80;99.90;;;;;;4997244;28;20408;-70
2022/11/24 11:22:25;;;;;;;14.80;2.33;;;8.90;99.90;;;;;;4979028;28;20042;-69
2022/11/24 11:25:15;;;;;;;10.18;2.17;;;9.00;99.90;;;;;;5000772;28;20085;-69
2022/11/24 11:27:41;;;;;;;11.18;2.90;;;8.90;99.90;;;;;;4985375;28;20062;-70
2022/11/24 11:30:16;;;;;;;16.65;2.70;;;9.00;99.90;;;;;;4989767;28;20058;-70
2022/11/24 11:32:59;;;;;;;10.90;2.78;;;9.00;99.90;;;;;;5003206;28;20089;-70
2022/11/24 11:35:32;;;;;;;13.32;2.35;;;9.00;99.90;;;;;;5000338;28;20465;-70
2022/11/24 11:38:02;;;;;;;11.68;2.80;;;9.10;99.90;;;;;;5002016;28;20494;-69
2022/11/24 11:40:30;;;;;;;13.73;2.58;;;9.10;99.90;;;;;;5000278;28;20066;-69
2022/11/24 11:43:09;;;;;;;14.45;2.50;;;9.10;99.90;;;;;;4994201;28;20061;-67
2022/11/24 11:45:41;;;;;;;8.88;2.28;;;9.20;99.90;;;;;;4997060;28;20041;-69
2022/11/24 11:48:31;;;;;;;10.18;2.40;;;9.20;99.90;;;;;;4997131;28;21534;-69
2022/11/24 11:51:20;;;;;;;16.33;2.83;;;9.30;99.90;;;;;;4998232;28;20073;-69
2022/11/24 11:53:51;;;;;;;7.75;2.45;;;9.30;99.90;;;;;;5003536;28;20037;-69
2022/11/24 11:56:34;;;;;;;7.85;2.20;;;9.40;99.90;;;;;;4988794;28;20053;-70
2022/11/24 11:59:40;;;;;;;12.23;2.85;;;9.40;99.90;;;;;;5001963;28;20407;-69
2022/11/24 12:02:31;;;;;;;14.27;2.60;;;9.40;99.90;;;;;;4990047;28;20372;-69
2022/11/24 12:05:08;;;;;;;13.63;2.78;;;9.50;99.90;;;;;;4988592;28;20111;-70
2022/11/24 12:07:40;;;;;;;12.38;2.40;;;9.50;99.90;;;;;;5004520;28;20057;-71
2022/11/24 12:10:30;;;;;;;10.75;2.13;;;9.60;99.90;;;;;;4988073;28;20066;-70
2022/11/24 12:13:37;;;;;;;11.57;2.25;;;9.60;99.90;;;;;;5003778;28;20049;-69
2022/11/24 12:16:07;;;;;;;13.15;2.92;;;9.60;99.90;;;;;;5003075;28;20056;-70
2022/11/24 12:18:52;;;;;;;14.15;2.65;;;9.80;99.90;;;;;;5005517;28;20507;-76
2022/11/24 12:21:23;;;;;;;15.60;2.70;;;9.70;99.90;;;;;;5006972;28;20057;-75
2022/11/24 12:24:20;;;;;;;15.50;3.28;;;9.70;99.90;;;;;;5004483;28;20187;-75
2022/11/24 12:26:51;;;;;;;10.20;2.42;;;9.80;99.90;;;;;;5006508;28;20042;-75
2022/11/24 12:29:32;;;;;;;12.88;2.60;;;9.80;99.90;;;;;;4994042;28;20407;-75
2022/11/24 12:32:14;;;;;;;16.17;3.35;;;9.70;99.90;;;;;;5006237;28;20418;-75
2022/11/24 12:34:59;;;;;;;17.13;2.78;;;9.70;99.90;;;;;;5005042;28;20045;-75
2022/11/24 12:37:34;;;;;;;15.38;2.85;;;9.80;99.90;;;;;;5004421;28;20041;-75
2022/11/24 12:40:27;;;;;;;15.98;2.55;;;9.80;99.90;;;;;;5006638;28;20042;-76
2022/11/24 12:43:08;;;;;;;20.08;2.95;;;9.80;99.90;;;;;;4972265;28;20041;-75
2022/11/24 12:45:58;;;;;;;13.57;3.08;;;9.80;99.90;;;;;;5006754;28;20121;-74
2022/11/24 12:48:32;;;;;;;13.68;3.20;;;9.80;99.90;;;;;;5006740;28;20478;-75
2022/11/24 12:50:59;;;;;;;13.25;2.85;;;9.90;99.90;;;;;;5005501;28;20037;-74
2022/11/24 12:53:31;;;;;;;13.77;3.55;;;9.90;99.90;;;;;;5006273;28;20050;-75
2022/11/24 12:56:20;;;;;;;15.32;2.65;;;9.90;99.90;;;;;;5006331;28;20042;-75
2022/11/24 12:58:56;;;;;;;13.57;2.50;;;9.90;99.90;;;;;;5004628;28;20384;-75
2022/11/24 13:01:52;;;;;;;12.30;2.65;;;9.90;99.90;;;;;;4988990;28;20057;-75